Time;durP1;ratioP1;P1;durP2;ratioP2;P2;SDS_P1;SDS_P2;PMS_P1;PMS_P2;Temp;Humidity;BMP_temperature;BMP_pressure;BME280_temperature;BME280_humidity;BME280_pressure;Samples;Min_cycle;Max_cycle;Signal;HPM_P1;HPM_P2
2023/12/06 00:01:23;;;;;;;25.83;12.27;;;;;;;;;;5091762;28;20032;-72
2023/12/06 00:03:48;;;;;;;28.80;12.38;;;;;;;;;;5092056;28;20105;-73
2023/12/06 00:06:14;;;;;;;24.58;11.88;;;;;;;;;;5084509;28;20035;-72
2023/12/06 00:08:39;;;;;;;24.77;10.87;;;;;;;;;;5080484;28;20020;-71
2023/12/06 00:11:04;;;;;;;33.53;11.70;;;;;;;;;;5070963;28;20269;-72
2023/12/06 00:13:29;;;;;;;29.92;11.48;;;;;;;;;;5073808;28;20346;-73
2023/12/06 00:15:55;;;;;;;24.75;11.10;;;;;;;;;;5075447;28;20702;-73
2023/12/06 00:18:20;;;;;;;22.92;10.55;;;;;;;;;;5087892;28;20501;-72
2023/12/06 00:20:46;;;;;;;23.02;11.07;;;;;;;;;;5081078;28;20024;-72
2023/12/06 00:23:11;;;;;;;27.30;12.03;;;;;;;;;;5069454;28;20464;-73
2023/12/06 00:25:36;;;;;;;32.50;14.25;;;;;;;;;;5098503;28;20275;-73
2023/12/06 00:28:01;;;;;;;36.07;14.10;;;;;;;;;;5084370;28;20020;-71
2023/12/06 00:30:27;;;;;;;34.65;14.45;;;;;;;;;;5082985;28;20813;-72
2023/12/06 00:32:52;;;;;;;34.85;14.93;;;;;;;;;;5080600;28;20040;-72
2023/12/06 00:35:18;;;;;;;32.20;14.55;;;;;;;;;;5083506;28;20035;-72
2023/12/06 00:37:43;;;;;;;33.63;14.65;;;;;;;;;;5087314;28;20028;-73
2023/12/06 00:40:08;;;;;;;37.08;16.30;;;;;;;;;;5088239;28;20055;-72
2023/12/06 00:42:34;;;;;;;38.85;17.08;;;;;;;;;;5073908;28;20029;-72
2023/12/06 00:44:59;;;;;;;37.87;15.80;;;;;;;;;;5084931;28;20012;-72
2023/12/06 00:47:24;;;;;;;36.08;16.60;;;;;;;;;;5090869;28;20298;-72
2023/12/06 00:49:50;;;;;;;39.58;17.02;;;;;;;;;;5089759;28;20027;-68
2023/12/06 00:52:15;;;;;;;38.33;16.80;;;;;;;;;;5084940;28;20797;-69
2023/12/06 00:54:40;;;;;;;41.75;16.98;;;;;;;;;;5069393;28;20039;-70
2023/12/06 00:57:06;;;;;;;38.75;16.48;;;;;;;;;;5081406;28;20497;-70
2023/12/06 00:59:34;;;;;;;37.13;16.63;;;;;;;;;;5073504;28;20039;-70
2023/12/06 01:01:59;;;;;;;39.10;16.98;;;;;;;;;;5089772;28;20020;-70
2023/12/06 01:04:25;;;;;;;38.30;16.75;;;;;;;;;;5087536;28;20047;-72
2023/12/06 01:06:50;;;;;;;36.42;16.38;;;;;;;;;;5082328;28;20439;-72
2023/12/06 01:09:19;;;;;;;36.28;17.02;;;;;;;;;;5068659;28;20032;-70
2023/12/06 01:11:44;;;;;;;39.80;17.35;;;;;;;;;;5085836;28;20027;-70
2023/12/06 01:14:09;;;;;;;37.55;15.88;;;;;;;;;;5089435;28;20477;-73
2023/12/06 01:16:35;;;;;;;34.65;15.75;;;;;;;;;;5086532;28;20020;-72
2023/12/06 01:19:00;;;;;;;35.42;15.45;;;;;;;;;;5067950;28;20039;-71
2023/12/06 01:21:25;;;;;;;33.10;14.90;;;;;;;;;;5084361;28;20027;-72
2023/12/06 01:23:51;;;;;;;30.77;14.70;;;;;;;;;;5085387;28;20028;-69
2023/12/06 01:26:16;;;;;;;33.85;14.75;;;;;;;;;;5080327;28;20082;-73
2023/12/06 01:28:41;;;;;;;33.23;14.57;;;;;;;;;;5087667;28;20019;-73
2023/12/06 01:31:06;;;;;;;34.50;14.88;;;;;;;;;;5066557;28;20399;-73
2023/12/06 01:33:32;;;;;;;34.40;14.38;;;;;;;;;;5068909;28;20048;-73
2023/12/06 01:35:57;;;;;;;33.78;15.07;;;;;;;;;;5086066;28;20024;-72
2023/12/06 01:38:22;;;;;;;34.88;15.60;;;;;;;;;;5066305;28;20137;-73
2023/12/06 01:40:48;;;;;;;36.53;15.02;;;;;;;;;;5088024;28;20028;-73
2023/12/06 01:43:13;;;;;;;32.60;15.27;;;;;;;;;;5081703;28;20502;-73
2023/12/06 01:45:38;;;;;;;37.83;15.35;;;;;;;;;;5087253;28;20264;-74
2023/12/06 01:48:04;;;;;;;37.17;15.13;;;;;;;;;;5085035;28;20508;-72
2023/12/06 01:50:30;;;;;;;33.85;14.55;;;;;;;;;;5092471;28;20052;-70
2023/12/06 01:52:57;;;;;;;33.53;15.32;;;;;;;;;;5087017;28;20028;-73
2023/12/06 01:55:23;;;;;;;29.17;13.50;;;;;;;;;;5077592;28;20028;-71
2023/12/06 01:57:48;;;;;;;31.85;14.05;;;;;;;;;;5089624;28;20369;-70
2023/12/06 02:00:15;;;;;;;29.83;13.70;;;;;;;;;;5089729;28;20032;-70
2023/12/06 02:02:40;;;;;;;32.20;14.40;;;;;;;;;;5086457;28;20032;-71
2023/12/06 02:05:06;;;;;;;35.33;15.85;;;;;;;;;;5069742;28;20550;-70
2023/12/06 02:07:32;;;;;;;35.60;14.85;;;;;;;;;;5081756;28;20024;-71
2023/12/06 02:09:58;;;;;;;31.65;14.27;;;;;;;;;;5065379;28;20070;-71
2023/12/06 02:12:23;;;;;;;33.43;15.53;;;;;;;;;;5059840;28;20028;-70
2023/12/06 02:14:48;;;;;;;33.00;14.90;;;;;;;;;;5066963;28;20291;-71
2023/12/06 02:17:17;;;;;;;32.10;14.98;;;;;;;;;;5078947;28;20029;-70
2023/12/06 02:19:42;;;;;;;35.55;16.10;;;;;;;;;;5086538;28;20020;-72
2023/12/06 02:22:12;;;;;;;34.35;15.55;;;;;;;;;;5069116;28;20119;-71
2023/12/06 02:24:40;;;;;;;;;;;;;;;;;;5065111;28;20029;-70
2023/12/06 02:27:08;;;;;;;31.73;13.63;;;;;;;;;;5087560;28;19955;-70
2023/12/06 02:29:34;;;;;;;32.03;15.30;;;;;;;;;;5083780;28;20044;-72
2023/12/06 02:31:59;;;;;;;33.30;14.77;;;;;;;;;;5084338;28;20103;-72
2023/12/06 02:34:26;;;;;;;34.15;15.18;;;;;;;;;;5090822;28;20139;-72
2023/12/06 02:36:57;;;;;;;33.92;14.38;;;;;;;;;;5076348;28;20213;-74
2023/12/06 02:39:23;;;;;;;32.03;15.38;;;;;;;;;;5090035;28;20135;-73
2023/12/06 02:41:48;;;;;;;31.52;14.68;;;;;;;;;;5086445;28;20107;-72
2023/12/06 02:44:13;;;;;;;33.20;14.45;;;;;;;;;;5085513;28;20115;-73
2023/12/06 02:46:39;;;;;;;35.03;15.32;;;;;;;;;;5088393;28;20111;-73
2023/12/06 02:49:04;;;;;;;35.28;14.65;;;;;;;;;;5066421;28;20036;-74
2023/12/06 02:51:30;;;;;;;33.97;16.00;;;;;;;;;;5079864;28;20052;-73
2023/12/06 02:53:55;;;;;;;32.70;14.65;;;;;;;;;;5071345;28;20276;-73
2023/12/06 02:56:20;;;;;;;34.97;15.48;;;;;;;;;;5062049;28;20055;-72
2023/12/06 02:58:45;;;;;;;35.00;15.82;;;;;;;;;;5074207;28;20074;-72
2023/12/06 03:01:11;;;;;;;35.43;14.90;;;;;;;;;;5084155;28;20024;-73
2023/12/06 03:03:36;;;;;;;34.38;14.80;;;;;;;;;;5084017;28;20758;-72
2023/12/06 03:06:01;;;;;;;34.10;15.10;;;;;;;;;;5066573;28;20020;-72
2023/12/06 03:08:27;;;;;;;36.03;15.82;;;;;;;;;;5081251;28;20039;-73
2023/12/06 03:10:52;;;;;;;34.30;15.73;;;;;;;;;;5069854;28;20103;-73
2023/12/06 03:13:17;;;;;;;34.70;15.23;;;;;;;;;;5087615;28;20031;-73
2023/12/06 03:15:43;;;;;;;31.97;14.87;;;;;;;;;;5082708;28;20481;-73
2023/12/06 03:18:08;;;;;;;31.83;14.80;;;;;;;;;;5081690;28;20273;-73
2023/12/06 03:20:34;;;;;;;32.72;14.25;;;;;;;;;;5068416;28;20446;-73
2023/12/06 03:22:59;;;;;;;33.20;14.70;;;;;;;;;;5083895;28;20020;-72
2023/12/06 03:25:24;;;;;;;32.17;15.18;;;;;;;;;;5087797;28;20146;-72
2023/12/06 03:27:53;;;;;;;30.02;13.95;;;;;;;;;;5093951;28;20027;-68
2023/12/06 03:30:18;;;;;;;27.92;13.77;;;;;;;;;;5068253;28;20038;-71
2023/12/06 03:32:44;;;;;;;30.92;13.82;;;;;;;;;;5071857;28;20024;-71
2023/12/06 03:35:09;;;;;;;33.08;14.18;;;;;;;;;;5088290;28;20024;-70
2023/12/06 03:37:34;;;;;;;31.75;14.38;;;;;;;;;;5091389;28;20434;-70
2023/12/06 03:40:03;;;;;;;32.47;14.13;;;;;;;;;;5082861;28;20055;-68
2023/12/06 03:42:31;;;;;;;33.25;14.38;;;;;;;;;;5084496;28;20304;-69
2023/12/06 03:44:57;;;;;;;27.95;14.20;;;;;;;;;;5092969;28;20035;-74
2023/12/06 03:47:22;;;;;;;31.42;14.35;;;;;;;;;;5094840;28;20021;-72
2023/12/06 03:49:48;;;;;;;30.90;13.85;;;;;;;;;;5068881;28;20096;-73
2023/12/06 03:52:13;;;;;;;30.95;14.38;;;;;;;;;;5080715;28;20047;-72
2023/12/06 03:54:38;;;;;;;30.67;14.07;;;;;;;;;;5089272;28;20033;-73
2023/12/06 03:57:04;;;;;;;32.10;15.02;;;;;;;;;;5093155;28;20102;-74
2023/12/06 03:59:29;;;;;;;30.75;13.93;;;;;;;;;;5091707;28;20060;-74
2023/12/06 04:01:55;;;;;;;29.50;14.02;;;;;;;1.06;nan;100068.34;5090606;28;20359;-74
2023/12/06 04:04:20;;;;;;;31.00;13.57;;;;;;;0.81;nan;100021.00;5087677;28;20924;-73
2023/12/06 04:06:45;;;;;;;31.45;14.90;;;;;;;0.74;nan;100005.34;5090631;28;20082;-74
2023/12/06 04:09:11;;;;;;;30.45;14.10;;;;;;;0.71;nan;99986.72;5074497;28;20081;-74
2023/12/06 04:11:37;;;;;;;31.75;14.48;;;;;;;0.92;nan;100012.03;5087176;28;20028;-74
2023/12/06 04:14:03;;;;;;;30.75;14.38;;;;;;;0.94;nan;100016.09;5088661;28;20119;-75
2023/12/06 04:16:31;;;;;;;29.95;14.65;;;;;;;0.94;nan;100013.50;5077516;28;20066;-74
2023/12/06 04:18:57;;;;;;;34.60;14.68;;;;;;;0.95;nan;100009.91;5091672;28;20401;-75
2023/12/06 04:21:22;;;;;;;34.67;15.10;;;;;;;0.99;nan;100006.00;5084769;28;20032;-75
2023/12/06 04:23:48;;;;;;;35.42;15.05;;;;;;;1.00;nan;99999.03;5087193;28;20016;-75
2023/12/06 04:26:14;;;;;;;31.05;14.23;;;;;;;0.93;nan;99988.53;5081459;28;20035;-76
2023/12/06 04:28:39;;;;;;;32.42;14.82;;;;;;;0.92;nan;99973.97;5068603;28;20578;-75
2023/12/06 04:31:05;;;;;;;39.45;15.13;;;;;;;1.11;nan;100003.00;5089436;28;20095;-75
2023/12/06 04:33:30;;;;;;;30.10;14.13;;;;;;;1.14;nan;100007.84;5096629;28;20039;-76
2023/12/06 04:35:56;;;;;;;35.10;15.40;;;;;;;1.20;nan;100012.34;5092356;28;20020;-76
2023/12/06 04:38:21;;;;;;;32.50;15.15;;;;;;;1.18;nan;100001.34;5083026;28;20027;-74
2023/12/06 04:40:47;;;;;;;31.45;14.20;;;;;;;1.19;nan;100000.34;5081667;28;20416;-74
2023/12/06 04:43:12;;;;;;;30.13;14.30;;;;;;;1.19;nan;99989.97;5089601;28;20031;-74
2023/12/06 04:45:38;;;;;;;30.17;14.10;;;;;;;1.21;nan;99999.19;5067867;28;20133;-76
2023/12/06 04:48:04;;;;;;;30.08;13.88;;;;;;;1.26;nan;99998.69;5070134;28;20032;-75
2023/12/06 04:50:29;;;;;;;29.65;14.05;;;;;;;1.25;nan;100000.47;5085819;28;20413;-74
2023/12/06 04:52:56;;;;;;;27.05;13.70;;;;;;;1.30;nan;100015.50;5082226;28;20035;-74
2023/12/06 04:55:21;;;;;;;33.92;14.73;;;;;;;1.31;nan;100006.75;5086963;28;20038;-74
2023/12/06 04:57:47;;;;;;;29.15;14.95;;;;;;;1.30;nan;100010.31;5092816;28;20020;-75
2023/12/06 05:00:13;;;;;;;28.85;13.98;;;;;;;1.28;nan;99997.53;5085291;28;20479;-75
2023/12/06 05:02:39;;;;;;;32.20;14.25;;;;;;;1.27;nan;100001.09;5083670;28;20389;-75
2023/12/06 05:05:05;;;;;;;31.45;14.45;;;;;;;1.27;nan;99998.50;5064362;28;20025;-75
2023/12/06 05:07:30;;;;;;;33.30;13.75;;;;;;;1.33;nan;100001.38;5085306;28;20023;-75
2023/12/06 05:09:56;;;;;;;29.90;14.18;;;;;;;1.38;nan;100012.84;5069363;28;20581;-75
2023/12/06 05:12:21;;;;;;;29.35;13.70;;;;;;;1.23;nan;99991.25;5089782;28;20047;-75
2023/12/06 05:14:47;;;;;;;28.10;13.40;;;;;;;1.34;nan;100010.78;5084080;28;20104;-74
2023/12/06 05:17:13;;;;;;;33.10;14.55;;;;;;;1.26;nan;99993.50;5081890;28;20046;-74
2023/12/06 05:19:38;;;;;;;28.75;14.20;;;;;;;1.39;nan;100011.88;5093748;28;20031;-74
2023/12/06 05:22:04;;;;;;;28.13;13.35;;;;;;;1.33;nan;99997.00;5074831;28;20043;-75
2023/12/06 05:24:29;;;;;;;33.90;14.48;;;;;;;1.37;nan;100011.25;5085551;28;20021;-75
2023/12/06 05:26:55;;;;;;;33.17;14.32;;;;;;;1.49;nan;100022.81;5079840;28;20103;-75
2023/12/06 05:29:20;;;;;;;32.80;13.50;;;;;;;1.51;nan;100021.81;5080085;28;20051;-72
2023/12/06 05:31:45;;;;;;;30.65;14.15;;;;;;;1.43;nan;100012.31;5087195;28;20551;-74
2023/12/06 05:34:11;;;;;;;29.20;14.18;;;;;;;1.54;nan;100024.88;5087570;28;20020;-74
2023/12/06 05:36:36;;;;;;;31.50;13.93;;;;;;;1.49;nan;100014.22;5085569;28;20020;-73
2023/12/06 05:39:05;;;;;;;29.20;13.32;;;;;;;1.54;nan;100024.09;5067683;28;20099;-73
2023/12/06 05:41:31;;;;;;;38.00;14.40;;;;;;;1.60;nan;100029.38;5095218;28;20085;-74
2023/12/06 05:43:56;;;;;;;33.08;14.18;;;;;;;1.53;nan;100005.09;5113049;28;20052;-73
2023/12/06 05:46:22;;;;;;;31.75;16.80;;;;;;;1.64;nan;100024.66;5112165;28;20034;-73
2023/12/06 05:48:47;;;;;;;42.78;23.50;;;;;;;1.61;nan;100019.81;5096882;28;20032;-73
2023/12/06 05:51:13;;;;;;;40.78;20.27;;;;;;;1.68;nan;100028.50;5104981;28;20101;-74
2023/12/06 05:53:39;;;;;;;34.60;16.40;;;;;;;1.67;nan;100022.50;5107124;28;20107;-73
2023/12/06 05:56:09;;;;;;;30.45;13.27;;;;;;;1.61;nan;100017.22;5084483;28;20037;-73
2023/12/06 05:58:36;;;;;;;31.98;14.57;;;;;;;1.59;nan;100017.38;5086186;28;20019;-74
2023/12/06 06:01:01;;;;;;;28.85;14.18;;;;;;;1.74;nan;100034.78;5083208;28;20043;-74
2023/12/06 06:03:27;;;;;;;29.88;13.30;;;;;;;1.61;nan;100007.63;5079917;28;20032;-74
2023/12/06 06:05:52;;;;;;;27.63;13.27;;;;;;;1.68;nan;100018.13;5070671;28;20023;-73
2023/12/06 06:08:17;;;;;;;25.92;13.00;;;;;;;1.67;nan;100017.31;5073278;28;20118;-73
2023/12/06 06:10:43;;;;;;;27.00;12.23;;;;;;;1.66;nan;100010.50;5078461;28;20052;-72
2023/12/06 06:13:09;;;;;;;32.13;12.82;;;;;;;1.77;nan;100013.66;5081193;28;20029;-73
2023/12/06 06:15:35;;;;;;;33.20;13.45;;;;;;;1.78;nan;100036.84;5082049;28;20024;-73
2023/12/06 06:18:03;;;;;;;31.17;13.20;;;;;;;1.45;nan;99968.84;5081294;28;20110;-69
2023/12/06 06:20:28;;;;;;;27.40;13.13;;;;;;;1.77;nan;100019.63;5082063;28;20030;-71
2023/12/06 06:23:02;;;;;;;32.40;13.77;;;;;;;1.79;nan;100022.88;5085319;28;20027;-70
2023/12/06 06:25:28;;;;;;;28.75;12.40;;;;;;;1.75;nan;100016.44;5068756;28;20456;-71
2023/12/06 06:27:53;;;;;;;32.80;13.10;;;;;;;1.86;nan;100038.56;5082023;28;20016;-73
2023/12/06 06:30:19;;;;;;;31.20;13.10;;;;;;;1.93;nan;100044.66;5067785;28;20485;-73
2023/12/06 06:32:44;;;;;;;31.48;14.18;;;;;;;1.78;nan;100021.28;5081054;28;20095;-73
2023/12/06 06:35:10;;;;;;;28.92;13.70;;;;;;;1.89;nan;100043.38;5078240;28;20028;-72
2023/12/06 06:37:35;;;;;;;30.05;12.70;;;;;;;1.83;nan;100033.72;5082839;28;20028;-74
2023/12/06 06:40:01;;;;;;;32.97;13.55;;;;;;;1.88;nan;100032.19;5084985;28;20032;-75
2023/12/06 06:42:26;;;;;;;28.80;13.32;;;;;;;2.02;nan;100050.59;5074035;28;20117;-75
2023/12/06 06:44:52;;;;;;;32.03;12.55;;;;;;;2.01;nan;100051.56;5079205;28;20063;-72
2023/12/06 06:47:18;;;;;;;30.48;14.00;;;;;;;2.03;nan;100047.78;5083152;28;20236;-76
2023/12/06 06:49:45;;;;;;;26.85;12.60;;;;;;;1.96;nan;100027.91;5062866;28;20123;-75
2023/12/06 06:52:11;;;;;;;29.08;13.05;;;;;;;2.00;nan;100029.19;5083656;28;20047;-75
2023/12/06 06:54:36;;;;;;;33.28;13.15;;;;;;;2.04;nan;100030.44;5080618;28;20722;-77
2023/12/06 06:57:02;;;;;;;28.65;12.98;;;;;;;2.08;nan;100036.88;5078520;28;20153;-75
2023/12/06 06:59:28;;;;;;;25.90;12.25;;;;;;;1.85;nan;100006.59;5085336;28;20497;-76
2023/12/06 07:01:53;;;;;;;25.95;12.95;;;;;;;2.18;nan;100049.59;5080801;28;20395;-76
2023/12/06 07:04:19;;;;;;;27.27;12.75;;;;;;;2.10;nan;100042.69;5066503;28;20031;-76
2023/12/06 07:06:44;;;;;;;31.52;12.32;;;;;;;2.13;nan;100039.75;5082783;28;20020;-76
2023/12/06 07:09:10;;;;;;;27.98;12.40;;;;;;;2.24;nan;100067.88;5083561;28;20028;-76
2023/12/06 07:11:35;;;;;;;23.92;12.00;;;;;;;2.25;nan;100066.91;5086783;28;20027;-77
2023/12/06 07:14:02;;;;;;;27.48;13.02;;;;;;;2.14;nan;100043.97;5086334;28;20524;-77
2023/12/06 07:16:27;;;;;;;31.13;12.30;;;;;;;1.95;nan;100005.53;5050735;28;20042;-75
2023/12/06 07:18:53;;;;;;;27.02;12.30;;;;;;;2.20;nan;100051.03;5087869;28;20020;-74
2023/12/06 07:21:18;;;;;;;27.45;12.52;;;;;;;2.28;nan;100074.34;5089273;28;20029;-72
2023/12/06 07:23:45;;;;;;;30.70;12.43;;;;;;;2.22;nan;100045.66;5068066;28;20078;-74
2023/12/06 07:26:10;;;;;;;25.83;11.60;;;;;;;2.36;nan;100057.84;5068638;28;20131;-74
2023/12/06 07:28:36;;;;;;;28.80;12.73;;;;;;;2.02;nan;100032.41;5074915;28;20103;-77
2023/12/06 07:31:01;;;;;;;28.25;12.02;;;;;;;1.93;nan;99997.91;5081059;28;20436;-77
2023/12/06 07:33:27;;;;;;;28.40;12.70;;;;;;;2.15;nan;100017.00;5090704;28;20089;-77
2023/12/06 07:36:01;;;;;;;30.98;12.45;;;;;;;2.46;nan;100086.16;5091389;28;20020;-77
2023/12/06 07:38:28;;;;;;;24.55;12.35;;;;;;;2.07;nan;100015.28;5081923;28;20052;-75
2023/12/06 07:40:53;;;;;;;26.63;12.38;;;;;;;2.39;nan;100038.50;5098121;28;20030;-77
2023/12/06 07:43:19;;;;;;;27.83;13.35;;;;;;;2.30;nan;100019.63;5095412;28;20047;-77
2023/12/06 07:45:45;;;;;;;28.50;12.98;;;;;;;2.31;nan;100021.22;5096215;28;20023;-77
2023/12/06 07:48:10;;;;;;;27.95;12.32;;;;;;;2.55;nan;100066.91;5077988;28;20072;-78
2023/12/06 07:50:35;;;;;;;29.80;11.70;;;;;;;2.47;nan;100041.00;5085175;28;20040;-73
2023/12/06 07:53:01;;;;;;;32.75;13.10;;;;;;;2.41;nan;100026.13;5086399;28;20478;-74
2023/12/06 07:55:27;;;;;;;29.35;12.82;;;;;;;2.53;nan;100043.66;5089609;28;20032;-75
2023/12/06 07:57:53;;;;;;;25.52;12.30;;;;;;;2.54;nan;100047.09;5084630;28;20028;-71
2023/12/06 08:00:19;;;;;;;25.88;12.45;;;;;;;2.52;nan;100034.28;5069336;28;20051;-72
2023/12/06 08:02:45;;;;;;;28.10;12.52;;;;;;;2.68;nan;100053.25;5086597;28;20577;-76
2023/12/06 08:05:11;;;;;;;25.55;12.55;;;;;;;2.60;nan;100038.56;5089042;28;20025;-76
2023/12/06 08:07:39;;;;;;;30.48;12.07;;;;;;;2.71;nan;100058.91;5094171;28;20023;-77
2023/12/06 08:10:10;;;;;;;26.08;11.60;;;;;;;2.67;nan;100047.25;5091166;28;20467;-77
2023/12/06 08:12:36;;;;;;;25.23;11.55;;;;;;;2.75;nan;100065.38;5090633;28;20024;-77
2023/12/06 08:15:06;;;;;;;24.20;11.25;;;;;;;2.83;nan;100064.44;5092343;28;20069;-77
2023/12/06 08:17:31;;;;;;;;;;;;;;;2.87;nan;100073.47;5093884;28;20042;-78
2023/12/06 08:19:56;;;;;;;23.48;11.15;;;;;;;2.87;nan;100064.88;5093337;28;19911;-77
2023/12/06 08:22:22;;;;;;;26.40;12.02;;;;;;;2.81;nan;100053.41;5082917;28;20036;-77
2023/12/06 08:24:48;;;;;;;25.33;11.60;;;;;;;2.90;nan;100064.53;5090423;28;20020;-72
2023/12/06 08:27:14;;;;;;;28.60;12.23;;;;;;;2.86;nan;100058.88;5078034;28;20050;-77
2023/12/06 08:29:40;;;;;;;25.45;11.13;;;;;;;2.89;nan;100060.31;5084072;28;20027;-78
2023/12/06 08:32:06;;;;;;;26.30;11.48;;;;;;;2.63;nan;100014.78;5092852;28;20043;-77
2023/12/06 08:34:31;;;;;;;26.38;11.40;;;;;;;2.83;nan;100041.03;5071842;28;20020;-77
2023/12/06 08:36:56;;;;;;;22.58;11.40;;;;;;;2.82;nan;100041.22;5083778;28;20036;-73
2023/12/06 08:39:22;;;;;;;31.83;11.93;;;;;;;2.55;nan;99988.91;5085969;28;20469;-72
2023/12/06 08:41:47;;;;;;;28.80;12.35;;;;;;;2.92;nan;100059.94;5091847;28;20050;-71
2023/12/06 08:44:13;;;;;;;29.00;11.73;;;;;;;2.96;nan;100061.19;5095720;28;20024;-73
2023/12/06 08:46:38;;;;;;;24.13;11.60;;;;;;;3.11;nan;100089.75;5079115;28;20087;-72
2023/12/06 08:49:04;;;;;;;29.02;11.93;;;;;;;2.90;nan;100043.72;5099961;28;20125;-74
2023/12/06 08:51:29;;;;;;;24.80;11.73;;;;;;;3.11;nan;100071.53;5097904;28;20040;-72
2023/12/06 08:53:54;;;;;;;29.55;12.73;;;;;;;3.21;nan;100059.06;5103904;28;20040;-72
2023/12/06 08:56:20;;;;;;;30.73;12.90;;;;;;;3.60;nan;100084.63;5093973;28;20055;-72
2023/12/06 08:58:45;;;;;;;30.00;12.75;;;;;;;3.65;nan;100067.66;5099621;28;20031;-77
2023/12/06 09:01:11;;;;;;;26.20;12.85;;;;;;;3.81;nan;100090.84;5091487;28;20586;-75
2023/12/06 09:03:36;;;;;;;30.27;12.00;;;;;;;3.87;nan;100090.06;5086314;28;20028;-75
2023/12/06 09:06:02;;;;;;;33.03;12.18;;;;;;;3.81;nan;100076.00;5094048;28;20489;-75
2023/12/06 09:08:27;;;;;;;32.42;12.13;;;;;;;3.78;nan;100079.00;5088443;28;20477;-76
2023/12/06 09:10:53;;;;;;;27.27;12.00;;;;;;;3.69;nan;100071.47;5081478;28;20036;-72
2023/12/06 09:13:19;;;;;;;30.13;11.77;;;;;;;3.76;nan;100083.59;5083419;28;20028;-69
2023/12/06 09:15:45;;;;;;;30.88;12.65;;;;;;;3.75;nan;100081.16;5079564;28;20094;-74
2023/12/06 09:18:10;;;;;;;34.83;12.20;;;;;;;3.66;nan;100061.44;5090385;28;20503;-75
2023/12/06 09:20:35;;;;;;;29.58;12.40;;;;;;;3.72;nan;100071.94;5089516;28;20107;-76
2023/12/06 09:23:01;;;;;;;28.25;11.95;;;;;;;3.70;nan;100068.69;5087786;28;20130;-76
2023/12/06 09:25:27;;;;;;;24.25;11.50;;;;;;;3.68;nan;100075.09;5087050;28;20073;-73
2023/12/06 09:27:55;;;;;;;25.52;12.30;;;;;;;3.74;nan;100067.34;5087584;28;20390;-72
2023/12/06 09:30:20;;;;;;;34.35;11.70;;;;;;;3.81;nan;100073.41;5085228;28;20032;-75
2023/12/06 09:32:46;;;;;;;28.95;11.55;;;;;;;3.79;nan;100056.34;5083325;28;20035;-76
2023/12/06 09:35:12;;;;;;;26.92;12.25;;;;;;;3.91;nan;100072.28;5081925;28;20146;-76
2023/12/06 09:37:37;;;;;;;26.70;12.32;;;;;;;3.86;nan;100067.63;5089728;28;20478;-76
2023/12/06 09:40:03;;;;;;;24.33;12.30;;;;;;;3.80;nan;100060.56;5087325;28;20027;-75
2023/12/06 09:42:29;;;;;;;29.23;14.35;;;;;;;3.87;nan;100068.44;5090365;28;20020;-73
2023/12/06 09:44:58;;;;;;;34.42;12.63;;;;;;;3.84;nan;100069.63;5083604;28;20048;-74
2023/12/06 09:47:24;;;;;;;24.27;12.57;;;;;;;3.77;nan;100064.34;5070177;28;20024;-74
2023/12/06 09:49:50;;;;;;;27.05;12.73;;;;;;;3.81;nan;100070.00;5072909;28;20031;-74
2023/12/06 09:52:21;;;;;;;26.35;12.88;;;;;;;3.78;nan;100060.78;5071167;28;20041;-73
2023/12/06 09:54:51;;;;;;;27.10;13.63;;;;;;;3.80;nan;100070.97;5080443;28;20086;-74
2023/12/06 09:57:17;;;;;;;29.45;12.93;;;;;;;3.81;nan;100073.41;5076554;28;20025;-73
2023/12/06 09:59:45;;;;;;;30.20;13.40;;;;;;;3.86;nan;100069.44;5062165;28;20025;-73
2023/12/06 10:02:10;;;;;;;25.98;13.18;;;;;;;3.75;nan;100055.91;5084253;28;20020;-74
2023/12/06 10:04:36;;;;;;;28.45;13.70;;;;;;;3.82;nan;100063.78;5086186;28;20019;-74
2023/12/06 10:07:10;;;;;;;26.92;13.77;;;;;;;3.94;nan;100074.50;5084770;28;20543;-71
2023/12/06 10:09:36;;;;;;;30.17;13.88;;;;;;;3.95;nan;100073.50;5076713;28;20024;-73
2023/12/06 10:12:08;;;;;;;29.08;13.50;;;;;;;3.91;nan;100065.25;5081215;28;20022;-74
2023/12/06 10:14:35;;;;;;;27.23;13.30;;;;;;;3.96;nan;100064.69;5072704;28;20043;-72
2023/12/06 10:17:00;;;;;;;30.75;14.18;;;;;;;3.92;nan;100059.03;5087903;28;20023;-74
2023/12/06 10:19:26;;;;;;;29.15;13.98;;;;;;;3.98;nan;100070.53;5079633;28;20089;-74
2023/12/06 10:21:53;;;;;;;29.90;13.55;;;;;;;4.02;nan;100069.13;5078152;28;20025;-75
2023/12/06 10:24:18;;;;;;;33.15;14.43;;;;;;;4.01;nan;100065.72;5081911;28;20105;-73
2023/12/06 10:26:44;;;;;;;26.30;13.73;;;;;;;3.78;nan;100024.31;5067420;28;20071;-73
2023/12/06 10:29:09;;;;;;;28.75;13.23;;;;;;;4.04;nan;100061.94;5087341;28;20594;-74
2023/12/06 10:31:42;;;;;;;30.20;14.23;;;;;;;4.18;nan;100075.88;5083696;28;20032;-73
2023/12/06 10:34:08;;;;;;;29.50;13.75;;;;;;;4.16;nan;100060.41;5074783;28;20026;-73
2023/12/06 10:36:37;;;;;;;34.25;15.07;;;;;;;4.12;nan;100055.78;5082415;28;20040;-73
2023/12/06 10:39:11;;;;;;;33.78;15.23;;;;;;;4.18;nan;100066.25;5092762;28;20098;-73
2023/12/06 10:41:41;;;;;;;29.65;14.35;;;;;;;4.20;nan;100061.66;5080794;28;20032;-73
2023/12/06 10:44:09;;;;;;;28.63;15.35;;;;;;;4.19;nan;100062.66;5065954;28;20485;-72
2023/12/06 10:46:36;;;;;;;28.90;14.67;;;;;;;4.31;nan;100069.91;5070594;28;20016;-74
2023/12/06 10:49:07;;;;;;;29.92;15.43;;;;;;;4.33;nan;100063.50;5087739;28;20020;-72
2023/12/06 10:51:34;;;;;;;32.35;14.88;;;;;;;4.35;nan;100056.31;5093483;28;20048;-75
2023/12/06 10:54:01;;;;;;;34.28;16.55;;;;;;;4.39;nan;100067.16;5078958;28;20728;-72
2023/12/06 10:56:28;;;;;;;33.58;15.70;;;;;;;4.38;nan;100063.78;5080669;28;20043;-74
2023/12/06 10:58:56;;;;;;;32.13;15.10;;;;;;;4.35;nan;100053.69;5086449;28;20019;-75
2023/12/06 11:01:22;;;;;;;31.75;14.52;;;;;;;4.29;nan;100041.47;5095178;28;20101;-75
2023/12/06 11:03:49;;;;;;;33.33;15.30;;;;;;;4.36;nan;100047.50;5076816;28;20039;-75
2023/12/06 11:06:33;;;;;;;32.67;14.52;;;;;;;4.43;nan;100060.56;5084677;28;20063;-75
2023/12/06 11:09:20;;;;;;;37.08;16.95;;;;;;;4.44;nan;100057.78;5085044;28;20511;-75
2023/12/06 11:12:01;;;;;;;29.50;14.48;;;;;;;4.45;nan;100053.34;5085511;28;20051;-76
2023/12/06 11:14:56;;;;;;;33.80;14.02;;;;;;;4.43;nan;100053.56;5074638;28;20039;-74
2023/12/06 11:17:45;;;;;;;34.13;14.32;;;;;;;4.43;nan;100053.56;5091458;28;20094;-75
2023/12/06 11:20:11;;;;;;;34.58;13.77;;;;;;;4.48;nan;100042.56;5081179;28;20367;-76
2023/12/06 11:22:38;;;;;;;34.85;14.23;;;;;;;4.54;nan;100044.38;5084948;28;20047;-75
2023/12/06 11:25:04;;;;;;;26.33;12.98;;;;;;;4.53;nan;100041.97;5085405;28;20497;-74
2023/12/06 11:27:30;;;;;;;27.42;12.63;;;;;;;4.60;nan;100046.22;5088284;28;20028;-75
2023/12/06 11:29:55;;;;;;;32.20;14.75;;;;;;;4.51;nan;100030.94;5090657;28;20032;-73
2023/12/06 11:32:21;;;;;;;26.27;13.45;;;;;;;4.49;nan;100028.50;5081632;28;20032;-75
2023/12/06 11:34:55;;;;;;;28.35;13.35;;;;;;;4.59;nan;100046.41;5082948;28;20020;-76
2023/12/06 11:37:22;;;;;;;27.38;13.45;;;;;;;4.54;nan;100039.16;5068281;28;20076;-76
2023/12/06 11:40:12;;;;;;;30.42;14.52;;;;;;;4.68;nan;100053.88;5067137;28;20042;-76
2023/12/06 11:42:38;;;;;;;31.13;13.82;;;;;;;4.67;nan;100049.66;5057252;28;20040;-75
2023/12/06 11:45:28;;;;;;;35.67;15.90;;;;;;;4.68;nan;100051.25;5082824;28;20038;-73
2023/12/06 11:47:54;;;;;;;34.20;14.57;;;;;;;4.69;nan;100049.44;5091369;28;20381;-72
2023/12/06 11:50:21;;;;;;;32.50;15.43;;;;;;;4.60;nan;100021.94;5093572;28;20071;-75
2023/12/06 11:52:51;;;;;;;41.47;18.33;;;;;;;4.78;nan;100055.31;5086610;28;20107;-71
2023/12/06 11:55:19;;;;;;;;;;;;;;;4.79;nan;100055.13;5082532;28;20077;-73
2023/12/06 11:58:02;;;;;;;46.55;18.45;;;;;;;4.82;nan;100059.16;5089484;28;19911;-74
2023/12/06 12:00:30;;;;;;;38.10;15.70;;;;;;;4.83;nan;100064.16;5089929;28;20030;-73
2023/12/06 12:02:57;;;;;;;45.22;19.40;;;;;;;4.88;nan;100066.16;5108273;28;20016;-71
2023/12/06 12:05:24;;;;;;;52.10;21.92;;;;;;;4.90;nan;100066.78;5114455;28;20024;-72
2023/12/06 12:07:49;;;;;;;42.40;17.98;;;;;;;4.79;nan;100042.09;5092495;28;20272;-73
2023/12/06 12:10:16;;;;;;;36.78;16.55;;;;;;;4.83;nan;100035.44;5108548;28;20032;-74
2023/12/06 12:12:42;;;;;;;42.33;18.13;;;;;;;4.98;nan;100043.16;5086556;28;20052;-75
2023/12/06 12:15:07;;;;;;;41.72;17.33;;;;;;;4.90;nan;100022.44;5074936;28;20066;-73
2023/12/06 12:17:35;;;;;;;44.85;18.60;;;;;;;5.00;nan;100032.50;5088534;28;20028;-73